Spring Arbor, Michigan
Current Conditions -  °F | °C
As of 1:33 AM on Saturday 25 Oct 2014 (Local Time) from KJXN Reporting Station
Haze Haze  
Wind Chill: 41°   Ceiling: Unl
Heat Index: 44°   Visibility: 2.5mi
Dew Point: 43°   Wind: 6mph
Humidity: 96%   Direction: 240°WSW
Pressure: 29.94"   Gusts: NA
Location:  42.21°N, 84.56°W
Report Text: KJXN 250533Z 24005KT 2 1/2SM BR CLR 07/06 A2994 RMK AO2 T00670061
Loading
Personal Weather Stations






























Interactive Weather Map
Tropical Storm Tracking
New forecast layout! Learn more

10-Day Weather Forecast

Advertisements
Track Severe Weather on mobile